Pagina principale
METAR-TAF:

METAR-TAF

Aeroporti :

Aeroporto d'Engadina

Sankt Moritz, Svizzera

latitudine: 46-32-03N, longitudine: 9-53-03E, altezza: 1707 m

Osservazione

Il bollettino è stato emesso 19 minuti fa, alle 18:20 UTC
Vento 6 kt da sud
Temperature 5°C
Umidità 87%
Pressione 1005 hPa
Visibilità 10 km o più
Poco nuvoloso ad un'altezza di 4800 ft

METAR: LSZS 191820Z AUTO 17006KT 9999 FEW048 05/03 Q1005

Ora: 20:39 (18:39 UTC)

Previsione

Il bollettino è stato emesso 4 ore e 14 minuti fa, alle 14:25 UTC
Previsione valida dal 19 alle 15 UTC al 19 alle 24 UTC
Vento 6 kt da sud-ovest
Visibilità 10 km o più
Nubi sparse ad un'altezza di 2500 ft
Nuvoloso ad un'altezza di 4000 ft
Probabilità 30% :
Temporaneamente
dal 19 alle 15 UTC al 19 alle 18 UTC
Visibilità: 4000 m
Nuvoloso ad un'altezza di 1400 ft
rovesci di pioggia

TAF: LSZS 191425Z 1915/1924 22006KT 9999 SCT025 BKN040 TX10/1915Z PROB30 TEMPO 1915/1918 4000 SHRA BKN014

Osservazioni e previsioni meteorologiche di più di 4000 aeroporti (messaggi METAR e TAF).

Le stazioni disponibili sono rappresentate dai dischi gialli e rossi sulla carta.

Puntare il mouse per vedere il nome della stazione.

Clicca sopra per visualizzare le osservazioni e previsioni meteorologiche.

Per cambiare la mappa : fare clic sui pulsanti verdi con una croce nera per ingrandire, il pulsante verde con un trattino per diminuire, o sulla freccia verde per le mappe adiacenti.


METAR-TAF: